sensor_id;sensor_type;location;lat;lon;timestamp;P1;durP1;ratioP1;P2;durP2;ratioP2
6007;SDS011;3032;49.484;11.112;2022-07-23T00:00:00;21.53;;;15.30;;
6007;SDS011;3032;49.484;11.112;2022-07-23T00:02:25;18.73;;;16.83;;
6007;SDS011;3032;49.484;11.112;2022-07-23T00:04:51;19.67;;;17.77;;
6007;SDS011;3032;49.484;11.112;2022-07-23T00:07:17;19.13;;;17.23;;
6007;SDS011;3032;49.484;11.112;2022-07-23T00:09:42;20.60;;;17.53;;
6007;SDS011;3032;49.484;11.112;2022-07-23T00:12:08;19.50;;;17.50;;
6007;SDS011;3032;49.484;11.112;2022-07-23T00:14:33;23.00;;;17.80;;
6007;SDS011;3032;49.484;11.112;2022-07-23T00:16:59;21.70;;;16.60;;
6007;SDS011;3032;49.484;11.112;2022-07-23T00:19:24;18.47;;;16.57;;
6007;SDS011;3032;49.484;11.112;2022-07-23T00:21:50;20.07;;;18.07;;
6007;SDS011;3032;49.484;11.112;2022-07-23T00:24:16;22.30;;;16.03;;
6007;SDS011;3032;49.484;11.112;2022-07-23T00:26:41;17.30;;;15.50;;
6007;SDS011;3032;49.484;11.112;2022-07-23T00:29:07;17.83;;;15.77;;
6007;SDS011;3032;49.484;11.112;2022-07-23T00:31:32;20.63;;;18.63;;
6007;SDS011;3032;49.484;11.112;2022-07-23T00:33:58;18.90;;;17.00;;
6007;SDS011;3032;49.484;11.112;2022-07-23T00:36:26;22.30;;;18.40;;
6007;SDS011;3032;49.484;11.112;2022-07-23T00:38:52;18.83;;;16.67;;
6007;SDS011;3032;49.484;11.112;2022-07-23T00:41:18;19.93;;;16.97;;
6007;SDS011;3032;49.484;11.112;2022-07-23T00:43:44;18.43;;;16.53;;
6007;SDS011;3032;49.484;11.112;2022-07-23T00:46:09;19.70;;;17.00;;
6007;SDS011;3032;49.484;11.112;2022-07-23T00:48:35;18.50;;;16.50;;
6007;SDS011;3032;49.484;11.112;2022-07-23T00:51:00;18.80;;;16.87;;
6007;SDS011;3032;49.484;11.112;2022-07-23T00:53:26;22.90;;;17.17;;
6007;SDS011;3032;49.484;11.112;2022-07-23T00:55:53;18.67;;;16.83;;
6007;SDS011;3032;49.484;11.112;2022-07-23T00:58:19;21.95;;;16.90;;
6007;SDS011;3032;49.484;11.112;2022-07-23T01:00:45;17.70;;;16.00;;
6007;SDS011;3032;49.484;11.112;2022-07-23T01:03:11;19.23;;;16.80;;
6007;SDS011;3032;49.484;11.112;2022-07-23T01:05:36;18.97;;;16.80;;
6007;SDS011;3032;49.484;11.112;2022-07-23T01:08:02;19.42;;;17.42;;
6007;SDS011;3032;49.484;11.112;2022-07-23T01:10:29;18.48;;;16.77;;
6007;SDS011;3032;49.484;11.112;2022-07-23T01:13:05;19.95;;;17.02;;
6007;SDS011;3032;49.484;11.112;2022-07-23T01:15:32;19.17;;;16.58;;
6007;SDS011;3032;49.484;11.112;2022-07-23T01:17:59;20.65;;;17.70;;
6007;SDS011;3032;49.484;11.112;2022-07-23T01:20:25;18.17;;;16.25;;
6007;SDS011;3032;49.484;11.112;2022-07-23T01:22:51;18.73;;;16.93;;
6007;SDS011;3032;49.484;11.112;2022-07-23T01:25:18;20.00;;;18.00;;
6007;SDS011;3032;49.484;11.112;2022-07-23T01:27:44;19.60;;;17.63;;
6007;SDS011;3032;49.484;11.112;2022-07-23T01:30:10;19.83;;;16.75;;
6007;SDS011;3032;49.484;11.112;2022-07-23T01:32:37;19.13;;;17.08;;
6007;SDS011;3032;49.484;11.112;2022-07-23T01:35:03;18.47;;;16.47;;
6007;SDS011;3032;49.484;11.112;2022-07-23T01:37:29;20.15;;;16.85;;
6007;SDS011;3032;49.484;11.112;2022-07-23T01:39:55;19.03;;;17.07;;
6007;SDS011;3032;49.484;11.112;2022-07-23T01:42:20;18.97;;;17.17;;
6007;SDS011;3032;49.484;11.112;2022-07-23T01:44:46;20.17;;;17.50;;
6007;SDS011;3032;49.484;11.112;2022-07-23T01:47:11;20.73;;;18.50;;
6007;SDS011;3032;49.484;11.112;2022-07-23T01:49:37;19.00;;;16.97;;
6007;SDS011;3032;49.484;11.112;2022-07-23T01:52:03;23.60;;;18.30;;
6007;SDS011;3032;49.484;11.112;2022-07-23T01:54:32;26.48;;;18.13;;
6007;SDS011;3032;49.484;11.112;2022-07-23T01:56:59;25.13;;;17.67;;
6007;SDS011;3032;49.484;11.112;2022-07-23T01:59:25;22.73;;;18.00;;
6007;SDS011;3032;49.484;11.112;2022-07-23T02:01:52;18.90;;;16.88;;
6007;SDS011;3032;49.484;11.112;2022-07-23T02:04:18;20.87;;;18.43;;
6007;SDS011;3032;49.484;11.112;2022-07-23T02:06:45;22.95;;;17.73;;
6007;SDS011;3032;49.484;11.112;2022-07-23T02:09:10;19.90;;;17.70;;
6007;SDS011;3032;49.484;11.112;2022-07-23T02:11:36;20.87;;;17.77;;
6007;SDS011;3032;49.484;11.112;2022-07-23T02:14:01;24.40;;;17.60;;
6007;SDS011;3032;49.484;11.112;2022-07-23T02:16:27;22.53;;;18.47;;
6007;SDS011;3032;49.484;11.112;2022-07-23T02:18:53;22.90;;;17.60;;
6007;SDS011;3032;49.484;11.112;2022-07-23T02:21:18;22.67;;;20.10;;
6007;SDS011;3032;49.484;11.112;2022-07-23T02:23:44;19.87;;;17.23;;
6007;SDS011;3032;49.484;11.112;2022-07-23T02:26:09;23.20;;;18.00;;
6007;SDS011;3032;49.484;11.112;2022-07-23T02:28:35;23.27;;;16.87;;
6007;SDS011;3032;49.484;11.112;2022-07-23T02:31:01;19.27;;;17.37;;
6007;SDS011;3032;49.484;11.112;2022-07-23T02:33:26;19.20;;;17.20;;
6007;SDS011;3032;49.484;11.112;2022-07-23T02:35:52;23.00;;;18.30;;
6007;SDS011;3032;49.484;11.112;2022-07-23T02:38:17;20.60;;;17.30;;
6007;SDS011;3032;49.484;11.112;2022-07-23T02:40:43;21.43;;;19.30;;
6007;SDS011;3032;49.484;11.112;2022-07-23T02:43:08;26.03;;;19.73;;
6007;SDS011;3032;49.484;11.112;2022-07-23T02:45:34;22.27;;;19.67;;
6007;SDS011;3032;49.484;11.112;2022-07-23T02:48:00;20.63;;;17.90;;
6007;SDS011;3032;49.484;11.112;2022-07-23T02:50:25;21.77;;;19.50;;
6007;SDS011;3032;49.484;11.112;2022-07-23T02:52:51;22.57;;;20.23;;
6007;SDS011;3032;49.484;11.112;2022-07-23T02:55:16;21.50;;;19.20;;
6007;SDS011;3032;49.484;11.112;2022-07-23T02:57:42;24.40;;;18.53;;
6007;SDS011;3032;49.484;11.112;2022-07-23T03:00:08;21.53;;;19.23;;
6007;SDS011;3032;49.484;11.112;2022-07-23T03:02:34;22.25;;;18.98;;
6007;SDS011;3032;49.484;11.112;2022-07-23T03:04:59;22.50;;;18.00;;
6007;SDS011;3032;49.484;11.112;2022-07-23T03:07:25;25.90;;;19.13;;
6007;SDS011;3032;49.484;11.112;2022-07-23T03:09:51;21.10;;;18.80;;
6007;SDS011;3032;49.484;11.112;2022-07-23T03:12:16;20.40;;;18.30;;
6007;SDS011;3032;49.484;11.112;2022-07-23T03:14:42;21.07;;;18.87;;
6007;SDS011;3032;49.484;11.112;2022-07-23T03:17:08;22.37;;;19.97;;
6007;SDS011;3032;49.484;11.112;2022-07-23T03:19:34;21.63;;;19.42;;
6007;SDS011;3032;49.484;11.112;2022-07-23T03:21:59;20.80;;;18.77;;
6007;SDS011;3032;49.484;11.112;2022-07-23T03:24:25;25.33;;;18.70;;
6007;SDS011;3032;49.484;11.112;2022-07-23T03:27:10;25.25;;;19.50;;
6007;SDS011;3032;49.484;11.112;2022-07-23T03:29:36;22.53;;;20.07;;
6007;SDS011;3032;49.484;11.112;2022-07-23T03:32:12;21.85;;;18.83;;
6007;SDS011;3032;49.484;11.112;2022-07-23T03:34:38;20.87;;;18.67;;
6007;SDS011;3032;49.484;11.112;2022-07-23T03:37:04;22.80;;;18.47;;
6007;SDS011;3032;49.484;11.112;2022-07-23T03:39:29;23.53;;;17.63;;
6007;SDS011;3032;49.484;11.112;2022-07-23T03:41:55;20.50;;;18.43;;
6007;SDS011;3032;49.484;11.112;2022-07-23T03:44:21;20.97;;;18.90;;
6007;SDS011;3032;49.484;11.112;2022-07-23T03:46:46;20.80;;;18.57;;
6007;SDS011;3032;49.484;11.112;2022-07-23T03:49:12;21.20;;;17.87;;
6007;SDS011;3032;49.484;11.112;2022-07-23T03:51:37;21.13;;;17.43;;
6007;SDS011;3032;49.484;11.112;2022-07-23T03:54:03;21.60;;;18.00;;
6007;SDS011;3032;49.484;11.112;2022-07-23T03:56:29;19.47;;;17.47;;
6007;SDS011;3032;49.484;11.112;2022-07-23T03:58:54;19.27;;;16.97;;
6007;SDS011;3032;49.484;11.112;2022-07-23T04:01:20;20.07;;;17.10;;
6007;SDS011;3032;49.484;11.112;2022-07-23T04:03:45;19.70;;;16.97;;
6007;SDS011;3032;49.484;11.112;2022-07-23T04:06:11;20.83;;;17.77;;
6007;SDS011;3032;49.484;11.112;2022-07-23T04:08:37;18.90;;;17.00;;
6007;SDS011;3032;49.484;11.112;2022-07-23T04:11:02;19.50;;;17.40;;
6007;SDS011;3032;49.484;11.112;2022-07-23T04:13:28;20.67;;;18.40;;
6007;SDS011;3032;49.484;11.112;2022-07-23T04:15:54;24.70;;;17.83;;
6007;SDS011;3032;49.484;11.112;2022-07-23T04:18:19;21.10;;;18.73;;
6007;SDS011;3032;49.484;11.112;2022-07-23T04:20:48;21.65;;;19.60;;
6007;SDS011;3032;49.484;11.112;2022-07-23T04:23:15;21.00;;;18.80;;
6007;SDS011;3032;49.484;11.112;2022-07-23T04:25:41;20.25;;;18.35;;
6007;SDS011;3032;49.484;11.112;2022-07-23T04:28:07;19.90;;;17.90;;
6007;SDS011;3032;49.484;11.112;2022-07-23T04:30:33;18.23;;;16.53;;
6007;SDS011;3032;49.484;11.112;2022-07-23T04:32:58;19.43;;;16.60;;
6007;SDS011;3032;49.484;11.112;2022-07-23T04:35:24;20.60;;;18.40;;
6007;SDS011;3032;49.484;11.112;2022-07-23T04:37:50;18.20;;;16.40;;
6007;SDS011;3032;49.484;11.112;2022-07-23T04:40:15;18.80;;;17.00;;
6007;SDS011;3032;49.484;11.112;2022-07-23T04:42:41;18.43;;;16.50;;
6007;SDS011;3032;49.484;11.112;2022-07-23T04:45:07;18.13;;;16.27;;
6007;SDS011;3032;49.484;11.112;2022-07-23T04:47:32;17.55;;;15.70;;
6007;SDS011;3032;49.484;11.112;2022-07-23T04:49:58;18.40;;;15.90;;
6007;SDS011;3032;49.484;11.112;2022-07-23T04:52:24;19.10;;;16.37;;
6007;SDS011;3032;49.484;11.112;2022-07-23T04:54:49;19.27;;;17.27;;
6007;SDS011;3032;49.484;11.112;2022-07-23T04:57:15;16.20;;;14.60;;
6007;SDS011;3032;49.484;11.112;2022-07-23T04:59:41;16.63;;;14.20;;
6007;SDS011;3032;49.484;11.112;2022-07-23T05:02:06;15.67;;;14.17;;
6007;SDS011;3032;49.484;11.112;2022-07-23T05:04:32;15.70;;;13.60;;
6007;SDS011;3032;49.484;11.112;2022-07-23T05:06:58;15.37;;;13.53;;
6007;SDS011;3032;49.484;11.112;2022-07-23T05:09:24;12.60;;;11.40;;
6007;SDS011;3032;49.484;11.112;2022-07-23T05:11:49;12.60;;;11.20;;
6007;SDS011;3032;49.484;11.112;2022-07-23T05:14:15;14.03;;;11.50;;
6007;SDS011;3032;49.484;11.112;2022-07-23T05:16:41;10.90;;;10.00;;
6007;SDS011;3032;49.484;11.112;2022-07-23T05:19:07;10.57;;;9.67;;
6007;SDS011;3032;49.484;11.112;2022-07-23T05:21:32;13.07;;;9.67;;
6007;SDS011;3032;49.484;11.112;2022-07-23T05:23:58;10.30;;;9.30;;
6007;SDS011;3032;49.484;11.112;2022-07-23T05:26:24;9.20;;;8.33;;
6007;SDS011;3032;49.484;11.112;2022-07-23T05:28:50;11.60;;;9.70;;
6007;SDS011;3032;49.484;11.112;2022-07-23T05:31:16;10.20;;;9.30;;
6007;SDS011;3032;49.484;11.112;2022-07-23T05:33:41;9.50;;;8.60;;
6007;SDS011;3032;49.484;11.112;2022-07-23T05:36:07;9.20;;;7.97;;
6007;SDS011;3032;49.484;11.112;2022-07-23T05:38:33;8.60;;;7.90;;
6007;SDS011;3032;49.484;11.112;2022-07-23T05:40:59;8.30;;;7.60;;
6007;SDS011;3032;49.484;11.112;2022-07-23T05:43:25;8.10;;;7.40;;
6007;SDS011;3032;49.484;11.112;2022-07-23T05:45:50;7.23;;;6.63;;
6007;SDS011;3032;49.484;11.112;2022-07-23T05:48:16;7.53;;;6.90;;
6007;SDS011;3032;49.484;11.112;2022-07-23T05:50:42;7.67;;;7.03;;
6007;SDS011;3032;49.484;11.112;2022-07-23T05:53:08;7.30;;;6.60;;
6007;SDS011;3032;49.484;11.112;2022-07-23T05:55:33;7.03;;;6.43;;
6007;SDS011;3032;49.484;11.112;2022-07-23T05:57:59;6.80;;;6.30;;
6007;SDS011;3032;49.484;11.112;2022-07-23T06:00:25;8.30;;;5.83;;
6007;SDS011;3032;49.484;11.112;2022-07-23T06:02:52;6.65;;;6.10;;
6007;SDS011;3032;49.484;11.112;2022-07-23T06:05:18;5.53;;;5.13;;
6007;SDS011;3032;49.484;11.112;2022-07-23T06:07:43;6.53;;;5.90;;
6007;SDS011;3032;49.484;11.112;2022-07-23T06:10:09;7.07;;;6.10;;
6007;SDS011;3032;49.484;11.112;2022-07-23T06:12:35;6.03;;;5.53;;
6007;SDS011;3032;49.484;11.112;2022-07-23T06:15:00;6.30;;;5.80;;
6007;SDS011;3032;49.484;11.112;2022-07-23T06:17:26;7.00;;;6.40;;
6007;SDS011;3032;49.484;11.112;2022-07-23T06:19:52;6.17;;;5.57;;
6007;SDS011;3032;49.484;11.112;2022-07-23T06:22:18;5.68;;;5.25;;
6007;SDS011;3032;49.484;11.112;2022-07-23T06:24:44;5.50;;;5.20;;
6007;SDS011;3032;49.484;11.112;2022-07-23T06:27:09;5.77;;;4.30;;
6007;SDS011;3032;49.484;11.112;2022-07-23T06:29:35;5.20;;;4.90;;
6007;SDS011;3032;49.484;11.112;2022-07-23T06:32:01;5.47;;;5.07;;
6007;SDS011;3032;49.484;11.112;2022-07-23T06:34:26;4.73;;;4.43;;
6007;SDS011;3032;49.484;11.112;2022-07-23T06:36:52;4.40;;;4.20;;
6007;SDS011;3032;49.484;11.112;2022-07-23T06:39:18;4.57;;;4.37;;
6007;SDS011;3032;49.484;11.112;2022-07-23T06:41:43;5.20;;;4.80;;
6007;SDS011;3032;49.484;11.112;2022-07-23T06:44:09;5.27;;;4.87;;
6007;SDS011;3032;49.484;11.112;2022-07-23T06:46:34;4.97;;;4.67;;
6007;SDS011;3032;49.484;11.112;2022-07-23T06:49:00;5.30;;;3.90;;
6007;SDS011;3032;49.484;11.112;2022-07-23T06:51:26;4.43;;;4.23;;
6007;SDS011;3032;49.484;11.112;2022-07-23T06:53:51;4.27;;;4.07;;
6007;SDS011;3032;49.484;11.112;2022-07-23T06:56:17;4.67;;;4.37;;
6007;SDS011;3032;49.484;11.112;2022-07-23T06:58:43;4.63;;;4.30;;
6007;SDS011;3032;49.484;11.112;2022-07-23T07:01:08;4.10;;;3.80;;
6007;SDS011;3032;49.484;11.112;2022-07-23T07:03:34;4.57;;;4.37;;
6007;SDS011;3032;49.484;11.112;2022-07-23T07:05:59;4.70;;;4.40;;
6007;SDS011;3032;49.484;11.112;2022-07-23T07:08:25;4.60;;;4.27;;
6007;SDS011;3032;49.484;11.112;2022-07-23T07:10:51;5.47;;;5.10;;
6007;SDS011;3032;49.484;11.112;2022-07-23T07:13:16;5.57;;;5.10;;
6007;SDS011;3032;49.484;11.112;2022-07-23T07:15:42;5.90;;;5.40;;
6007;SDS011;3032;49.484;11.112;2022-07-23T07:18:07;7.10;;;6.50;;
6007;SDS011;3032;49.484;11.112;2022-07-23T07:20:33;6.17;;;5.67;;
6007;SDS011;3032;49.484;11.112;2022-07-23T07:22:58;7.20;;;6.57;;
6007;SDS011;3032;49.484;11.112;2022-07-23T07:25:24;7.60;;;6.87;;
6007;SDS011;3032;49.484;11.112;2022-07-23T07:27:50;7.63;;;6.93;;
6007;SDS011;3032;49.484;11.112;2022-07-23T07:30:15;8.17;;;7.33;;
6007;SDS011;3032;49.484;11.112;2022-07-23T07:32:41;9.33;;;7.33;;
6007;SDS011;3032;49.484;11.112;2022-07-23T07:35:07;10.70;;;6.63;;
6007;SDS011;3032;49.484;11.112;2022-07-23T07:37:33;7.65;;;7.07;;
6007;SDS011;3032;49.484;11.112;2022-07-23T07:39:59;9.87;;;7.50;;
6007;SDS011;3032;49.484;11.112;2022-07-23T07:42:25;10.20;;;7.10;;
6007;SDS011;3032;49.484;11.112;2022-07-23T07:44:51;7.97;;;7.18;;
6007;SDS011;3032;49.484;11.112;2022-07-23T07:47:17;8.20;;;7.20;;
6007;SDS011;3032;49.484;11.112;2022-07-23T07:49:42;9.50;;;7.47;;
6007;SDS011;3032;49.484;11.112;2022-07-23T07:52:09;13.50;;;7.70;;
6007;SDS011;3032;49.484;11.112;2022-07-23T07:54:35;9.73;;;7.40;;
6007;SDS011;3032;49.484;11.112;2022-07-23T07:57:00;12.17;;;7.40;;
6007;SDS011;3032;49.484;11.112;2022-07-23T07:59:26;9.50;;;8.70;;
6007;SDS011;3032;49.484;11.112;2022-07-23T08:01:52;14.03;;;9.63;;
6007;SDS011;3032;49.484;11.112;2022-07-23T08:04:17;10.90;;;8.77;;
6007;SDS011;3032;49.484;11.112;2022-07-23T08:06:43;8.90;;;8.20;;
6007;SDS011;3032;49.484;11.112;2022-07-23T08:09:09;15.53;;;9.63;;
6007;SDS011;3032;49.484;11.112;2022-07-23T08:11:34;11.00;;;10.00;;
6007;SDS011;3032;49.484;11.112;2022-07-23T08:14:00;10.63;;;9.60;;
6007;SDS011;3032;49.484;11.112;2022-07-23T08:16:25;11.20;;;10.10;;
6007;SDS011;3032;49.484;11.112;2022-07-23T08:18:51;10.43;;;9.30;;
6007;SDS011;3032;49.484;11.112;2022-07-23T08:21:16;10.13;;;9.33;;
6007;SDS011;3032;49.484;11.112;2022-07-23T08:23:42;10.13;;;9.23;;
6007;SDS011;3032;49.484;11.112;2022-07-23T08:26:08;10.65;;;9.57;;
6007;SDS011;3032;49.484;11.112;2022-07-23T08:28:34;10.27;;;9.30;;
6007;SDS011;3032;49.484;11.112;2022-07-23T08:31:00;11.77;;;9.57;;
6007;SDS011;3032;49.484;11.112;2022-07-23T08:33:26;9.75;;;8.75;;
6007;SDS011;3032;49.484;11.112;2022-07-23T08:35:52;10.37;;;8.80;;
6007;SDS011;3032;49.484;11.112;2022-07-23T08:38:19;10.27;;;9.33;;
6007;SDS011;3032;49.484;11.112;2022-07-23T08:40:50;9.65;;;8.85;;
6007;SDS011;3032;49.484;11.112;2022-07-23T08:43:21;9.07;;;8.27;;
6007;SDS011;3032;49.484;11.112;2022-07-23T08:45:50;12.88;;;8.70;;
6007;SDS011;3032;49.484;11.112;2022-07-23T08:48:21;12.20;;;8.43;;
6007;SDS011;3032;49.484;11.112;2022-07-23T08:50:49;9.10;;;8.30;;
6007;SDS011;3032;49.484;11.112;2022-07-23T08:53:21;10.50;;;9.40;;
6007;SDS011;3032;49.484;11.112;2022-07-23T08:55:52;9.68;;;8.77;;
6007;SDS011;3032;49.484;11.112;2022-07-23T08:58:20;8.98;;;8.15;;
6007;SDS011;3032;49.484;11.112;2022-07-23T09:00:47;8.82;;;7.90;;
6007;SDS011;3032;49.484;11.112;2022-07-23T09:03:23;9.25;;;8.38;;
6007;SDS011;3032;49.484;11.112;2022-07-23T09:05:50;11.00;;;8.82;;
6007;SDS011;3032;49.484;11.112;2022-07-23T09:08:17;11.48;;;9.63;;
6007;SDS011;3032;49.484;11.112;2022-07-23T09:18:49;11.85;;;10.68;;
6007;SDS011;3032;49.484;11.112;2022-07-23T09:21:23;11.90;;;10.70;;
6007;SDS011;3032;49.484;11.112;2022-07-23T09:23:57;12.43;;;11.32;;
6007;SDS011;3032;49.484;11.112;2022-07-23T09:34:13;10.70;;;9.60;;
6007;SDS011;3032;49.484;11.112;2022-07-23T09:37:08;9.82;;;9.02;;
6007;SDS011;3032;49.484;11.112;2022-07-23T09:39:41;9.48;;;8.55;;
6007;SDS011;3032;49.484;11.112;2022-07-23T09:44:53;10.63;;;9.63;;
6007;SDS011;3032;49.484;11.112;2022-07-23T09:47:20;8.70;;;7.90;;
6007;SDS011;3032;49.484;11.112;2022-07-23T09:50:00;9.43;;;8.63;;
6007;SDS011;3032;49.484;11.112;2022-07-23T09:52:44;11.23;;;10.13;;
6007;SDS011;3032;49.484;11.112;2022-07-23T09:55:12;11.88;;;10.60;;
6007;SDS011;3032;49.484;11.112;2022-07-23T09:57:37;17.73;;;11.03;;
6007;SDS011;3032;49.484;11.112;2022-07-23T10:00:15;12.23;;;11.02;;
6007;SDS011;3032;49.484;11.112;2022-07-23T10:02:40;13.67;;;12.20;;
6007;SDS011;3032;49.484;11.112;2022-07-23T10:05:07;11.63;;;10.43;;
6007;SDS011;3032;49.484;11.112;2022-07-23T10:07:33;12.10;;;10.90;;
6007;SDS011;3032;49.484;11.112;2022-07-23T10:10:02;11.88;;;10.50;;
6007;SDS011;3032;49.484;11.112;2022-07-23T10:12:29;14.57;;;11.20;;
6007;SDS011;3032;49.484;11.112;2022-07-23T10:15:04;23.48;;;12.48;;
6007;SDS011;3032;49.484;11.112;2022-07-23T10:17:34;16.35;;;12.80;;
6007;SDS011;3032;49.484;11.112;2022-07-23T10:20:00;16.25;;;14.55;;
6007;SDS011;3032;49.484;11.112;2022-07-23T10:22:28;16.45;;;13.02;;
6007;SDS011;3032;49.484;11.112;2022-07-23T10:27:50;13.70;;;11.98;;
6007;SDS011;3032;49.484;11.112;2022-07-23T10:39:44;14.05;;;11.73;;
6007;SDS011;3032;49.484;11.112;2022-07-23T10:42:13;12.30;;;11.05;;
6007;SDS011;3032;49.484;11.112;2022-07-23T10:44:41;14.07;;;12.57;;
6007;SDS011;3032;49.484;11.112;2022-07-23T10:47:12;13.68;;;11.80;;
6007;SDS011;3032;49.484;11.112;2022-07-23T10:53:12;14.38;;;12.98;;
6007;SDS011;3032;49.484;11.112;2022-07-23T10:55:41;13.77;;;12.48;;
6007;SDS011;3032;49.484;11.112;2022-07-23T10:58:12;16.10;;;14.50;;
6007;SDS011;3032;49.484;11.112;2022-07-23T11:01:30;18.83;;;17.00;;
6007;SDS011;3032;49.484;11.112;2022-07-23T11:04:01;16.27;;;14.65;;
6007;SDS011;3032;49.484;11.112;2022-07-23T11:09:29;15.38;;;12.68;;
6007;SDS011;3032;49.484;11.112;2022-07-23T11:15:08;16.90;;;13.30;;
6007;SDS011;3032;49.484;11.112;2022-07-23T11:25:51;15.45;;;13.18;;
6007;SDS011;3032;49.484;11.112;2022-07-23T11:28:08;15.15;;;13.70;;
6007;SDS011;3032;49.484;11.112;2022-07-23T11:30:42;14.35;;;12.85;;
6007;SDS011;3032;49.484;11.112;2022-07-23T11:35:42;16.60;;;14.95;;
6007;SDS011;3032;49.484;11.112;2022-07-23T11:38:16;15.07;;;13.48;;
6007;SDS011;3032;49.484;11.112;2022-07-23T11:40:48;14.02;;;11.40;;
6007;SDS011;3032;49.484;11.112;2022-07-23T11:43:15;11.65;;;10.50;;
6007;SDS011;3032;49.484;11.112;2022-07-23T11:45:42;12.18;;;11.07;;
6007;SDS011;3032;49.484;11.112;2022-07-23T11:48:15;13.07;;;11.68;;
6007;SDS011;3032;49.484;11.112;2022-07-23T11:50:43;15.73;;;11.38;;
6007;SDS011;3032;49.484;11.112;2022-07-23T11:53:10;11.93;;;10.63;;
6007;SDS011;3032;49.484;11.112;2022-07-23T11:55:37;12.23;;;9.00;;
6007;SDS011;3032;49.484;11.112;2022-07-23T11:58:03;9.93;;;8.70;;
6007;SDS011;3032;49.484;11.112;2022-07-23T12:00:30;11.35;;;10.25;;
6007;SDS011;3032;49.484;11.112;2022-07-23T12:02:57;13.30;;;9.63;;
6007;SDS011;3032;49.484;11.112;2022-07-23T12:05:29;10.93;;;9.85;;
6007;SDS011;3032;49.484;11.112;2022-07-23T12:07:56;8.98;;;8.18;;
6007;SDS011;3032;49.484;11.112;2022-07-23T12:10:27;9.38;;;8.68;;
6007;SDS011;3032;49.484;11.112;2022-07-23T12:12:56;8.32;;;7.63;;
6007;SDS011;3032;49.484;11.112;2022-07-23T12:15:31;7.60;;;7.10;;
6007;SDS011;3032;49.484;11.112;2022-07-23T12:17:59;9.32;;;8.52;;
6007;SDS011;3032;49.484;11.112;2022-07-23T12:20:27;8.73;;;7.97;;
6007;SDS011;3032;49.484;11.112;2022-07-23T12:22:59;9.10;;;8.23;;
6007;SDS011;3032;49.484;11.112;2022-07-23T12:25:28;9.15;;;8.18;;
6007;SDS011;3032;49.484;11.112;2022-07-23T12:28:05;7.85;;;7.25;;
6007;SDS011;3032;49.484;11.112;2022-07-23T12:35:53;8.70;;;7.90;;
6007;SDS011;3032;49.484;11.112;2022-07-23T12:38:20;7.70;;;7.20;;
6007;SDS011;3032;49.484;11.112;2022-07-23T12:40:48;7.55;;;6.95;;
6007;SDS011;3032;49.484;11.112;2022-07-23T12:48:30;7.15;;;6.55;;
6007;SDS011;3032;49.484;11.112;2022-07-23T12:53:51;7.03;;;6.53;;
6007;SDS011;3032;49.484;11.112;2022-07-23T12:56:27;6.35;;;5.95;;
6007;SDS011;3032;49.484;11.112;2022-07-23T12:58:55;7.07;;;6.57;;
6007;SDS011;3032;49.484;11.112;2022-07-23T13:06:31;6.18;;;5.78;;
6007;SDS011;3032;49.484;11.112;2022-07-23T13:08:58;6.38;;;5.85;;
6007;SDS011;3032;49.484;11.112;2022-07-23T13:11:24;6.55;;;6.13;;
6007;SDS011;3032;49.484;11.112;2022-07-23T13:13:50;5.90;;;5.60;;
6007;SDS011;3032;49.484;11.112;2022-07-23T13:16:16;6.20;;;5.70;;
6007;SDS011;3032;49.484;11.112;2022-07-23T13:18:42;6.73;;;6.40;;
6007;SDS011;3032;49.484;11.112;2022-07-23T13:21:08;6.67;;;6.10;;
6007;SDS011;3032;49.484;11.112;2022-07-23T13:23:33;5.43;;;5.00;;
6007;SDS011;3032;49.484;11.112;2022-07-23T13:26:00;6.07;;;5.78;;
6007;SDS011;3032;49.484;11.112;2022-07-23T13:28:25;6.40;;;6.00;;
6007;SDS011;3032;49.484;11.112;2022-07-23T13:30:51;7.00;;;6.50;;
6007;SDS011;3032;49.484;11.112;2022-07-23T13:33:18;6.75;;;6.25;;
6007;SDS011;3032;49.484;11.112;2022-07-23T13:35:44;6.80;;;6.10;;
6007;SDS011;3032;49.484;11.112;2022-07-23T13:38:10;6.37;;;5.97;;
6007;SDS011;3032;49.484;11.112;2022-07-23T13:40:40;6.57;;;6.13;;
6007;SDS011;3032;49.484;11.112;2022-07-23T13:43:08;6.60;;;6.10;;
6007;SDS011;3032;49.484;11.112;2022-07-23T13:45:34;5.88;;;5.57;;
6007;SDS011;3032;49.484;11.112;2022-07-23T13:48:00;6.93;;;6.53;;
6007;SDS011;3032;49.484;11.112;2022-07-23T13:50:26;7.35;;;6.75;;
6007;SDS011;3032;49.484;11.112;2022-07-23T13:52:52;6.13;;;5.67;;
6007;SDS011;3032;49.484;11.112;2022-07-23T13:55:17;6.83;;;6.33;;
6007;SDS011;3032;49.484;11.112;2022-07-23T13:57:43;6.67;;;6.07;;
6007;SDS011;3032;49.484;11.112;2022-07-23T14:00:09;6.50;;;6.00;;
6007;SDS011;3032;49.484;11.112;2022-07-23T14:02:37;6.80;;;6.30;;
6007;SDS011;3032;49.484;11.112;2022-07-23T14:05:05;10.20;;;9.30;;
6007;SDS011;3032;49.484;11.112;2022-07-23T14:07:32;13.57;;;12.38;;
6007;SDS011;3032;49.484;11.112;2022-07-23T14:09:59;7.57;;;7.07;;
6007;SDS011;3032;49.484;11.112;2022-07-23T14:12:25;6.30;;;5.90;;
6007;SDS011;3032;49.484;11.112;2022-07-23T14:14:51;6.18;;;5.80;;
6007;SDS011;3032;49.484;11.112;2022-07-23T14:17:17;8.03;;;7.43;;
6007;SDS011;3032;49.484;11.112;2022-07-23T14:19:43;9.10;;;6.50;;
6007;SDS011;3032;49.484;11.112;2022-07-23T14:22:09;7.07;;;6.57;;
6007;SDS011;3032;49.484;11.112;2022-07-23T14:24:34;7.87;;;7.37;;
6007;SDS011;3032;49.484;11.112;2022-07-23T14:27:00;6.80;;;6.30;;
6007;SDS011;3032;49.484;11.112;2022-07-23T14:29:27;6.43;;;6.00;;
6007;SDS011;3032;49.484;11.112;2022-07-23T14:31:53;6.85;;;6.45;;
6007;SDS011;3032;49.484;11.112;2022-07-23T14:34:19;6.07;;;5.50;;
6007;SDS011;3032;49.484;11.112;2022-07-23T14:36:45;8.80;;;6.50;;
6007;SDS011;3032;49.484;11.112;2022-07-23T14:39:10;7.30;;;6.80;;
6007;SDS011;3032;49.484;11.112;2022-07-23T14:41:37;6.07;;;5.43;;
6007;SDS011;3032;49.484;11.112;2022-07-23T14:44:03;7.00;;;6.40;;
6007;SDS011;3032;49.484;11.112;2022-07-23T14:46:29;7.18;;;6.57;;
6007;SDS011;3032;49.484;11.112;2022-07-23T14:48:55;6.40;;;5.93;;
6007;SDS011;3032;49.484;11.112;2022-07-23T14:51:21;6.57;;;6.07;;
6007;SDS011;3032;49.484;11.112;2022-07-23T14:53:47;6.57;;;6.17;;
6007;SDS011;3032;49.484;11.112;2022-07-23T14:56:13;6.88;;;6.38;;
6007;SDS011;3032;49.484;11.112;2022-07-23T14:58:39;6.37;;;5.87;;
6007;SDS011;3032;49.484;11.112;2022-07-23T15:01:05;6.95;;;6.45;;
6007;SDS011;3032;49.484;11.112;2022-07-23T15:03:31;6.97;;;6.47;;
6007;SDS011;3032;49.484;11.112;2022-07-23T15:05:56;9.10;;;5.90;;
6007;SDS011;3032;49.484;11.112;2022-07-23T15:08:22;7.10;;;6.60;;
6007;SDS011;3032;49.484;11.112;2022-07-23T15:10:48;6.97;;;6.47;;
6007;SDS011;3032;49.484;11.112;2022-07-23T15:13:13;6.80;;;6.30;;
6007;SDS011;3032;49.484;11.112;2022-07-23T15:15:39;7.00;;;6.40;;
6007;SDS011;3032;49.484;11.112;2022-07-23T15:18:04;6.33;;;5.83;;
6007;SDS011;3032;49.484;11.112;2022-07-23T15:20:30;6.43;;;5.93;;
6007;SDS011;3032;49.484;11.112;2022-07-23T15:22:56;7.20;;;6.60;;
6007;SDS011;3032;49.484;11.112;2022-07-23T15:25:22;6.60;;;6.03;;
6007;SDS011;3032;49.484;11.112;2022-07-23T15:27:48;6.93;;;6.20;;
6007;SDS011;3032;49.484;11.112;2022-07-23T15:30:13;5.83;;;5.43;;
6007;SDS011;3032;49.484;11.112;2022-07-23T15:32:39;8.03;;;5.77;;
6007;SDS011;3032;49.484;11.112;2022-07-23T15:35:05;6.40;;;5.90;;
6007;SDS011;3032;49.484;11.112;2022-07-23T15:37:33;5.70;;;5.40;;
6007;SDS011;3032;49.484;11.112;2022-07-23T15:39:59;6.97;;;6.22;;
6007;SDS011;3032;49.484;11.112;2022-07-23T15:42:25;6.57;;;6.10;;
6007;SDS011;3032;49.484;11.112;2022-07-23T15:44:51;7.30;;;6.70;;
6007;SDS011;3032;49.484;11.112;2022-07-23T15:47:17;7.23;;;5.77;;
6007;SDS011;3032;49.484;11.112;2022-07-23T15:49:43;5.88;;;5.38;;
6007;SDS011;3032;49.484;11.112;2022-07-23T15:52:09;5.80;;;5.40;;
6007;SDS011;3032;49.484;11.112;2022-07-23T15:54:36;6.30;;;5.73;;